sensor_id;sensor_type;location;lat;lon;timestamp;P1;durP1;ratioP1;P2;durP2;ratioP2
43933;SDS011;59081;42.706;23.306;2022-12-24T00:01:40;189.27;;;98.05;;
43933;SDS011;59081;42.706;23.306;2022-12-24T00:04:06;177.80;;;89.75;;
43933;SDS011;59081;42.706;23.306;2022-12-24T00:06:37;157.43;;;85.82;;
43933;SDS011;59081;42.706;23.306;2022-12-24T00:09:03;193.25;;;100.50;;
43933;SDS011;59081;42.706;23.306;2022-12-24T00:11:28;153.73;;;78.72;;
43933;SDS011;59081;42.706;23.306;2022-12-24T00:13:54;222.38;;;114.97;;
43933;SDS011;59081;42.706;23.306;2022-12-24T00:16:20;227.73;;;112.63;;
43933;SDS011;59081;42.706;23.306;2022-12-24T00:18:46;230.77;;;121.30;;
43933;SDS011;59081;42.706;23.306;2022-12-24T00:21:11;237.75;;;118.63;;
43933;SDS011;59081;42.706;23.306;2022-12-24T00:23:45;220.40;;;114.45;;
43933;SDS011;59081;42.706;23.306;2022-12-24T00:26:16;199.48;;;99.75;;
43933;SDS011;59081;42.706;23.306;2022-12-24T00:28:41;211.65;;;109.35;;
43933;SDS011;59081;42.706;23.306;2022-12-24T00:31:08;203.43;;;104.30;;
43933;SDS011;59081;42.706;23.306;2022-12-24T00:33:34;200.32;;;103.40;;
43933;SDS011;59081;42.706;23.306;2022-12-24T00:36:02;195.55;;;105.28;;
43933;SDS011;59081;42.706;23.306;2022-12-24T00:38:28;214.38;;;112.18;;
43933;SDS011;59081;42.706;23.306;2022-12-24T00:41:01;226.48;;;109.93;;
43933;SDS011;59081;42.706;23.306;2022-12-24T00:43:30;226.73;;;119.07;;
43933;SDS011;59081;42.706;23.306;2022-12-24T00:45:57;248.50;;;126.68;;
43933;SDS011;59081;42.706;23.306;2022-12-24T00:48:31;235.20;;;119.45;;
43933;SDS011;59081;42.706;23.306;2022-12-24T00:51:04;227.25;;;115.85;;
43933;SDS011;59081;42.706;23.306;2022-12-24T00:53:29;210.75;;;111.00;;
43933;SDS011;59081;42.706;23.306;2022-12-24T00:55:55;221.52;;;110.53;;
43933;SDS011;59081;42.706;23.306;2022-12-24T00:58:20;194.82;;;101.72;;
43933;SDS011;59081;42.706;23.306;2022-12-24T01:00:46;172.32;;;87.35;;
43933;SDS011;59081;42.706;23.306;2022-12-24T01:03:15;181.88;;;95.60;;
43933;SDS011;59081;42.706;23.306;2022-12-24T01:05:40;200.38;;;103.40;;
43933;SDS011;59081;42.706;23.306;2022-12-24T01:08:09;186.50;;;97.18;;
43933;SDS011;59081;42.706;23.306;2022-12-24T01:10:37;188.27;;;102.18;;
43933;SDS011;59081;42.706;23.306;2022-12-24T01:13:03;189.40;;;95.65;;
43933;SDS011;59081;42.706;23.306;2022-12-24T01:15:29;210.65;;;105.50;;
43933;SDS011;59081;42.706;23.306;2022-12-24T01:17:57;208.48;;;104.88;;
43933;SDS011;59081;42.706;23.306;2022-12-24T01:20:25;221.27;;;121.53;;
43933;SDS011;59081;42.706;23.306;2022-12-24T01:22:58;244.25;;;123.90;;
43933;SDS011;59081;42.706;23.306;2022-12-24T01:25:26;232.65;;;120.45;;
43933;SDS011;59081;42.706;23.306;2022-12-24T01:27:59;198.75;;;105.72;;
43933;SDS011;59081;42.706;23.306;2022-12-24T01:30:36;231.95;;;118.28;;
43933;SDS011;59081;42.706;23.306;2022-12-24T01:33:08;225.98;;;112.95;;
43933;SDS011;59081;42.706;23.306;2022-12-24T01:35:42;199.73;;;100.35;;
43933;SDS011;59081;42.706;23.306;2022-12-24T01:38:11;221.77;;;115.40;;
43933;SDS011;59081;42.706;23.306;2022-12-24T01:40:38;218.35;;;114.03;;
43933;SDS011;59081;42.706;23.306;2022-12-24T01:43:23;208.13;;;111.72;;
43933;SDS011;59081;42.706;23.306;2022-12-24T01:45:57;208.80;;;107.30;;
43933;SDS011;59081;42.706;23.306;2022-12-24T01:51:39;180.93;;;88.63;;
43933;SDS011;59081;42.706;23.306;2022-12-24T01:54:10;186.77;;;91.38;;
43933;SDS011;59081;42.706;23.306;2022-12-24T01:56:41;185.40;;;94.10;;
43933;SDS011;59081;42.706;23.306;2022-12-24T01:59:12;197.90;;;100.15;;
43933;SDS011;59081;42.706;23.306;2022-12-24T02:01:40;187.15;;;97.78;;
43933;SDS011;59081;42.706;23.306;2022-12-24T02:04:28;178.65;;;92.28;;
43933;SDS011;59081;42.706;23.306;2022-12-24T02:07:26;185.52;;;97.32;;
43933;SDS011;59081;42.706;23.306;2022-12-24T02:09:53;186.27;;;92.68;;
43933;SDS011;59081;42.706;23.306;2022-12-24T02:12:25;161.20;;;84.20;;
43933;SDS011;59081;42.706;23.306;2022-12-24T02:14:53;168.23;;;91.82;;
43933;SDS011;59081;42.706;23.306;2022-12-24T02:21:00;168.50;;;87.20;;
43933;SDS011;59081;42.706;23.306;2022-12-24T02:35:34;102.85;;;55.70;;
43933;SDS011;59081;42.706;23.306;2022-12-24T02:38:03;108.95;;;57.08;;
43933;SDS011;59081;42.706;23.306;2022-12-24T02:40:40;137.55;;;73.63;;
43933;SDS011;59081;42.706;23.306;2022-12-24T02:43:23;130.65;;;64.78;;
43933;SDS011;59081;42.706;23.306;2022-12-24T02:45:55;117.93;;;56.25;;
43933;SDS011;59081;42.706;23.306;2022-12-24T02:48:28;110.80;;;57.53;;
43933;SDS011;59081;42.706;23.306;2022-12-24T02:51:03;105.95;;;55.95;;
43933;SDS011;59081;42.706;23.306;2022-12-24T02:53:40;88.28;;;48.05;;
43933;SDS011;59081;42.706;23.306;2022-12-24T03:04:55;118.13;;;61.17;;
43933;SDS011;59081;42.706;23.306;2022-12-24T03:07:30;133.57;;;71.22;;
43933;SDS011;59081;42.706;23.306;2022-12-24T03:12:56;152.38;;;74.55;;
43933;SDS011;59081;42.706;23.306;2022-12-24T03:15:40;141.35;;;72.50;;
43933;SDS011;59081;42.706;23.306;2022-12-24T03:18:12;154.10;;;80.93;;
43933;SDS011;59081;42.706;23.306;2022-12-24T03:20:49;140.20;;;75.25;;
43933;SDS011;59081;42.706;23.306;2022-12-24T03:23:46;136.15;;;68.82;;
43933;SDS011;59081;42.706;23.306;2022-12-24T03:26:21;141.48;;;71.55;;
43933;SDS011;59081;42.706;23.306;2022-12-24T03:29:05;144.60;;;72.93;;
43933;SDS011;59081;42.706;23.306;2022-12-24T03:31:56;158.48;;;72.32;;
43933;SDS011;59081;42.706;23.306;2022-12-24T03:37:01;149.23;;;76.07;;
43933;SDS011;59081;42.706;23.306;2022-12-24T03:39:43;133.27;;;71.03;;
43933;SDS011;59081;42.706;23.306;2022-12-24T03:42:14;156.65;;;77.07;;
43933;SDS011;59081;42.706;23.306;2022-12-24T03:44:43;144.93;;;68.60;;
43933;SDS011;59081;42.706;23.306;2022-12-24T03:47:14;146.60;;;83.13;;
43933;SDS011;59081;42.706;23.306;2022-12-24T03:49:51;151.18;;;76.38;;
43933;SDS011;59081;42.706;23.306;2022-12-24T03:52:17;152.57;;;76.70;;
43933;SDS011;59081;42.706;23.306;2022-12-24T03:54:55;141.68;;;70.20;;
43933;SDS011;59081;42.706;23.306;2022-12-24T03:57:29;148.38;;;74.15;;
43933;SDS011;59081;42.706;23.306;2022-12-24T04:00:13;161.55;;;77.97;;
43933;SDS011;59081;42.706;23.306;2022-12-24T04:02:42;141.65;;;65.85;;
43933;SDS011;59081;42.706;23.306;2022-12-24T04:05:11;145.93;;;67.78;;
43933;SDS011;59081;42.706;23.306;2022-12-24T04:07:41;131.48;;;65.03;;
43933;SDS011;59081;42.706;23.306;2022-12-24T04:10:07;140.77;;;59.60;;
43933;SDS011;59081;42.706;23.306;2022-12-24T04:12:34;118.15;;;60.55;;
43933;SDS011;59081;42.706;23.306;2022-12-24T04:15:02;124.57;;;59.22;;
43933;SDS011;59081;42.706;23.306;2022-12-24T04:17:31;112.13;;;55.13;;
43933;SDS011;59081;42.706;23.306;2022-12-24T04:19:57;133.05;;;66.40;;
43933;SDS011;59081;42.706;23.306;2022-12-24T04:22:25;124.13;;;65.22;;
43933;SDS011;59081;42.706;23.306;2022-12-24T04:24:54;127.80;;;67.47;;
43933;SDS011;59081;42.706;23.306;2022-12-24T04:27:20;143.38;;;72.30;;
43933;SDS011;59081;42.706;23.306;2022-12-24T04:29:57;133.20;;;69.60;;
43933;SDS011;59081;42.706;23.306;2022-12-24T04:32:25;131.77;;;64.70;;
43933;SDS011;59081;42.706;23.306;2022-12-24T04:35:08;108.82;;;50.65;;
43933;SDS011;59081;42.706;23.306;2022-12-24T04:37:37;105.22;;;55.83;;
43933;SDS011;59081;42.706;23.306;2022-12-24T04:40:13;107.50;;;55.60;;
43933;SDS011;59081;42.706;23.306;2022-12-24T04:42:39;105.55;;;55.33;;
43933;SDS011;59081;42.706;23.306;2022-12-24T04:45:09;113.70;;;54.28;;
43933;SDS011;59081;42.706;23.306;2022-12-24T04:47:44;107.72;;;53.38;;
43933;SDS011;59081;42.706;23.306;2022-12-24T04:50:19;101.03;;;49.92;;
43933;SDS011;59081;42.706;23.306;2022-12-24T04:52:49;91.05;;;47.10;;
43933;SDS011;59081;42.706;23.306;2022-12-24T04:55:21;112.00;;;57.50;;
43933;SDS011;59081;42.706;23.306;2022-12-24T04:57:54;100.00;;;53.78;;
43933;SDS011;59081;42.706;23.306;2022-12-24T05:00:20;96.32;;;54.53;;
43933;SDS011;59081;42.706;23.306;2022-12-24T05:02:49;100.35;;;50.92;;
43933;SDS011;59081;42.706;23.306;2022-12-24T05:05:40;91.13;;;50.70;;
43933;SDS011;59081;42.706;23.306;2022-12-24T05:08:11;96.18;;;48.38;;
43933;SDS011;59081;42.706;23.306;2022-12-24T05:10:43;108.95;;;55.33;;
43933;SDS011;59081;42.706;23.306;2022-12-24T05:13:21;138.93;;;73.13;;
43933;SDS011;59081;42.706;23.306;2022-12-24T05:16:00;142.88;;;73.13;;
43933;SDS011;59081;42.706;23.306;2022-12-24T05:18:38;134.52;;;69.18;;
43933;SDS011;59081;42.706;23.306;2022-12-24T05:21:07;151.35;;;76.72;;
43933;SDS011;59081;42.706;23.306;2022-12-24T05:23:52;150.60;;;80.45;;
43933;SDS011;59081;42.706;23.306;2022-12-24T05:26:52;188.60;;;96.97;;
43933;SDS011;59081;42.706;23.306;2022-12-24T05:29:25;168.13;;;85.63;;
43933;SDS011;59081;42.706;23.306;2022-12-24T05:32:02;157.65;;;84.65;;
43933;SDS011;59081;42.706;23.306;2022-12-24T05:34:31;161.15;;;84.70;;
43933;SDS011;59081;42.706;23.306;2022-12-24T05:37:07;155.77;;;76.65;;
43933;SDS011;59081;42.706;23.306;2022-12-24T05:39:49;147.63;;;78.93;;
43933;SDS011;59081;42.706;23.306;2022-12-24T05:42:27;159.70;;;81.85;;
43933;SDS011;59081;42.706;23.306;2022-12-24T05:45:01;159.52;;;82.43;;
43933;SDS011;59081;42.706;23.306;2022-12-24T05:47:32;144.05;;;74.95;;
43933;SDS011;59081;42.706;23.306;2022-12-24T05:50:13;155.10;;;76.03;;
43933;SDS011;59081;42.706;23.306;2022-12-24T05:55:47;157.55;;;77.57;;
43933;SDS011;59081;42.706;23.306;2022-12-24T05:58:32;150.20;;;73.05;;
43933;SDS011;59081;42.706;23.306;2022-12-24T06:01:09;166.50;;;81.43;;
43933;SDS011;59081;42.706;23.306;2022-12-24T06:03:47;169.20;;;82.13;;
43933;SDS011;59081;42.706;23.306;2022-12-24T06:06:24;168.80;;;80.20;;
43933;SDS011;59081;42.706;23.306;2022-12-24T06:11:41;160.93;;;81.95;;
43933;SDS011;59081;42.706;23.306;2022-12-24T06:14:29;163.82;;;83.20;;
43933;SDS011;59081;42.706;23.306;2022-12-24T06:17:00;160.82;;;82.70;;
43933;SDS011;59081;42.706;23.306;2022-12-24T06:19:29;179.40;;;85.85;;
43933;SDS011;59081;42.706;23.306;2022-12-24T06:22:08;175.82;;;85.15;;
43933;SDS011;59081;42.706;23.306;2022-12-24T06:24:39;167.38;;;84.10;;
43933;SDS011;59081;42.706;23.306;2022-12-24T06:27:13;158.52;;;85.25;;
43933;SDS011;59081;42.706;23.306;2022-12-24T06:29:48;159.30;;;73.90;;
43933;SDS011;59081;42.706;23.306;2022-12-24T06:32:25;177.27;;;84.55;;
43933;SDS011;59081;42.706;23.306;2022-12-24T06:34:53;168.68;;;84.15;;
43933;SDS011;59081;42.706;23.306;2022-12-24T06:37:19;168.82;;;84.47;;
43933;SDS011;59081;42.706;23.306;2022-12-24T06:39:59;175.77;;;83.93;;
43933;SDS011;59081;42.706;23.306;2022-12-24T06:42:32;165.20;;;83.32;;
43933;SDS011;59081;42.706;23.306;2022-12-24T06:44:58;150.23;;;71.80;;
43933;SDS011;59081;42.706;23.306;2022-12-24T06:47:35;148.65;;;80.00;;
43933;SDS011;59081;42.706;23.306;2022-12-24T06:50:06;167.68;;;84.13;;
43933;SDS011;59081;42.706;23.306;2022-12-24T06:52:41;157.88;;;82.63;;
43933;SDS011;59081;42.706;23.306;2022-12-24T06:55:12;156.55;;;74.85;;
43933;SDS011;59081;42.706;23.306;2022-12-24T06:57:46;174.55;;;93.18;;
43933;SDS011;59081;42.706;23.306;2022-12-24T07:00:21;170.00;;;88.47;;
43933;SDS011;59081;42.706;23.306;2022-12-24T07:02:52;167.18;;;85.90;;
43933;SDS011;59081;42.706;23.306;2022-12-24T07:05:28;183.45;;;89.05;;
43933;SDS011;59081;42.706;23.306;2022-12-24T07:07:56;179.48;;;91.38;;
43933;SDS011;59081;42.706;23.306;2022-12-24T07:10:22;178.07;;;83.50;;
43933;SDS011;59081;42.706;23.306;2022-12-24T07:12:54;180.13;;;83.10;;
43933;SDS011;59081;42.706;23.306;2022-12-24T07:15:22;172.52;;;84.38;;
43933;SDS011;59081;42.706;23.306;2022-12-24T07:17:48;166.38;;;81.05;;
43933;SDS011;59081;42.706;23.306;2022-12-24T07:20:13;160.63;;;80.55;;
43933;SDS011;59081;42.706;23.306;2022-12-24T07:22:42;151.93;;;76.45;;
43933;SDS011;59081;42.706;23.306;2022-12-24T07:25:08;163.63;;;79.70;;
43933;SDS011;59081;42.706;23.306;2022-12-24T07:27:36;140.68;;;72.47;;
43933;SDS011;59081;42.706;23.306;2022-12-24T07:30:07;158.20;;;77.30;;
43933;SDS011;59081;42.706;23.306;2022-12-24T07:32:42;173.13;;;80.68;;
43933;SDS011;59081;42.706;23.306;2022-12-24T07:35:08;177.27;;;84.10;;
43933;SDS011;59081;42.706;23.306;2022-12-24T07:37:41;173.20;;;84.80;;
43933;SDS011;59081;42.706;23.306;2022-12-24T07:40:16;158.55;;;81.75;;
43933;SDS011;59081;42.706;23.306;2022-12-24T07:42:42;166.80;;;84.00;;
43933;SDS011;59081;42.706;23.306;2022-12-24T07:45:07;151.65;;;78.43;;
43933;SDS011;59081;42.706;23.306;2022-12-24T07:47:33;139.25;;;74.07;;
43933;SDS011;59081;42.706;23.306;2022-12-24T07:49:59;133.68;;;74.13;;
43933;SDS011;59081;42.706;23.306;2022-12-24T07:52:25;141.05;;;71.85;;
43933;SDS011;59081;42.706;23.306;2022-12-24T07:54:59;136.00;;;71.45;;
43933;SDS011;59081;42.706;23.306;2022-12-24T07:57:25;141.68;;;70.30;;
43933;SDS011;59081;42.706;23.306;2022-12-24T07:59:53;130.50;;;68.53;;
43933;SDS011;59081;42.706;23.306;2022-12-24T08:02:19;143.30;;;71.20;;
43933;SDS011;59081;42.706;23.306;2022-12-24T08:04:47;137.32;;;70.85;;
43933;SDS011;59081;42.706;23.306;2022-12-24T08:07:13;142.15;;;70.97;;
43933;SDS011;59081;42.706;23.306;2022-12-24T08:09:41;131.07;;;70.30;;
43933;SDS011;59081;42.706;23.306;2022-12-24T08:12:08;142.65;;;66.82;;
43933;SDS011;59081;42.706;23.306;2022-12-24T08:14:36;130.55;;;63.92;;
43933;SDS011;59081;42.706;23.306;2022-12-24T08:17:04;118.63;;;59.97;;
43933;SDS011;59081;42.706;23.306;2022-12-24T08:19:30;122.63;;;62.65;;
43933;SDS011;59081;42.706;23.306;2022-12-24T08:21:55;124.65;;;63.67;;
43933;SDS011;59081;42.706;23.306;2022-12-24T08:24:23;121.38;;;59.30;;
43933;SDS011;59081;42.706;23.306;2022-12-24T08:26:49;143.02;;;68.95;;
43933;SDS011;59081;42.706;23.306;2022-12-24T08:29:18;137.18;;;68.70;;
43933;SDS011;59081;42.706;23.306;2022-12-24T08:31:49;146.30;;;75.03;;
43933;SDS011;59081;42.706;23.306;2022-12-24T08:34:15;134.02;;;69.32;;
43933;SDS011;59081;42.706;23.306;2022-12-24T08:36:41;125.60;;;67.70;;
43933;SDS011;59081;42.706;23.306;2022-12-24T08:39:11;130.13;;;71.13;;
43933;SDS011;59081;42.706;23.306;2022-12-24T08:41:39;132.90;;;73.53;;
43933;SDS011;59081;42.706;23.306;2022-12-24T08:44:05;129.38;;;67.45;;
43933;SDS011;59081;42.706;23.306;2022-12-24T08:46:33;130.70;;;72.70;;
43933;SDS011;59081;42.706;23.306;2022-12-24T08:49:07;132.60;;;68.72;;
43933;SDS011;59081;42.706;23.306;2022-12-24T08:51:33;113.38;;;60.70;;
43933;SDS011;59081;42.706;23.306;2022-12-24T08:54:02;117.50;;;67.40;;
43933;SDS011;59081;42.706;23.306;2022-12-24T08:56:28;130.38;;;66.95;;
43933;SDS011;59081;42.706;23.306;2022-12-24T08:58:53;137.93;;;74.85;;
43933;SDS011;59081;42.706;23.306;2022-12-24T09:01:19;135.02;;;71.97;;
43933;SDS011;59081;42.706;23.306;2022-12-24T09:03:46;125.68;;;69.35;;
43933;SDS011;59081;42.706;23.306;2022-12-24T09:06:12;144.77;;;69.72;;
43933;SDS011;59081;42.706;23.306;2022-12-24T09:08:38;126.10;;;67.65;;
43933;SDS011;59081;42.706;23.306;2022-12-24T09:11:05;129.40;;;67.47;;
43933;SDS011;59081;42.706;23.306;2022-12-24T09:13:36;132.32;;;70.97;;
43933;SDS011;59081;42.706;23.306;2022-12-24T09:16:02;134.63;;;69.50;;
43933;SDS011;59081;42.706;23.306;2022-12-24T09:18:29;130.50;;;69.82;;
43933;SDS011;59081;42.706;23.306;2022-12-24T09:21:01;122.85;;;64.95;;
43933;SDS011;59081;42.706;23.306;2022-12-24T09:23:28;119.10;;;63.20;;
43933;SDS011;59081;42.706;23.306;2022-12-24T09:25:54;121.22;;;58.10;;
43933;SDS011;59081;42.706;23.306;2022-12-24T09:28:20;119.05;;;65.05;;
43933;SDS011;59081;42.706;23.306;2022-12-24T09:31:01;121.25;;;66.15;;
43933;SDS011;59081;42.706;23.306;2022-12-24T09:33:29;124.57;;;66.10;;
43933;SDS011;59081;42.706;23.306;2022-12-24T09:35:57;124.28;;;69.22;;
43933;SDS011;59081;42.706;23.306;2022-12-24T09:38:23;129.70;;;70.25;;
43933;SDS011;59081;42.706;23.306;2022-12-24T09:40:49;131.45;;;66.90;;
43933;SDS011;59081;42.706;23.306;2022-12-24T09:43:26;112.60;;;57.83;;
43933;SDS011;59081;42.706;23.306;2022-12-24T09:48:22;102.10;;;55.80;;
43933;SDS011;59081;42.706;23.306;2022-12-24T09:51:09;113.43;;;60.10;;
43933;SDS011;59081;42.706;23.306;2022-12-24T09:56:29;107.55;;;59.78;;
43933;SDS011;59081;42.706;23.306;2022-12-24T09:58:58;106.32;;;58.22;;
43933;SDS011;59081;42.706;23.306;2022-12-24T10:01:28;99.53;;;56.25;;
43933;SDS011;59081;42.706;23.306;2022-12-24T10:04:03;99.65;;;53.80;;
43933;SDS011;59081;42.706;23.306;2022-12-24T10:12:07;91.60;;;49.13;;
43933;SDS011;59081;42.706;23.306;2022-12-24T10:20:12;90.72;;;49.08;;
43933;SDS011;59081;42.706;23.306;2022-12-24T10:22:54;88.28;;;44.75;;
43933;SDS011;59081;42.706;23.306;2022-12-24T10:25:39;97.00;;;50.67;;
43933;SDS011;59081;42.706;23.306;2022-12-24T10:28:14;94.25;;;50.75;;
43933;SDS011;59081;42.706;23.306;2022-12-24T10:30:43;86.93;;;48.70;;
43933;SDS011;59081;42.706;23.306;2022-12-24T10:33:15;92.93;;;51.90;;
43933;SDS011;59081;42.706;23.306;2022-12-24T10:35:55;97.07;;;48.67;;
43933;SDS011;59081;42.706;23.306;2022-12-24T10:38:22;91.95;;;47.22;;
43933;SDS011;59081;42.706;23.306;2022-12-24T10:40:49;92.60;;;49.60;;
43933;SDS011;59081;42.706;23.306;2022-12-24T10:43:21;95.97;;;51.63;;
43933;SDS011;59081;42.706;23.306;2022-12-24T10:45:59;89.45;;;49.70;;
43933;SDS011;59081;42.706;23.306;2022-12-24T10:48:28;106.97;;;53.10;;
43933;SDS011;59081;42.706;23.306;2022-12-24T10:51:11;104.57;;;55.72;;
43933;SDS011;59081;42.706;23.306;2022-12-24T10:53:45;102.10;;;53.17;;
43933;SDS011;59081;42.706;23.306;2022-12-24T10:56:16;98.78;;;51.72;;
43933;SDS011;59081;42.706;23.306;2022-12-24T10:58:45;102.22;;;51.35;;
43933;SDS011;59081;42.706;23.306;2022-12-24T11:01:20;97.43;;;51.70;;
43933;SDS011;59081;42.706;23.306;2022-12-24T11:04:06;100.88;;;52.67;;
43933;SDS011;59081;42.706;23.306;2022-12-24T11:09:35;98.88;;;50.95;;
43933;SDS011;59081;42.706;23.306;2022-12-24T11:12:19;90.30;;;51.40;;
43933;SDS011;59081;42.706;23.306;2022-12-24T11:14:58;104.40;;;52.33;;
43933;SDS011;59081;42.706;23.306;2022-12-24T11:17:26;99.22;;;53.53;;
43933;SDS011;59081;42.706;23.306;2022-12-24T11:19:52;100.88;;;51.58;;
43933;SDS011;59081;42.706;23.306;2022-12-24T11:22:20;93.57;;;50.30;;
43933;SDS011;59081;42.706;23.306;2022-12-24T11:25:01;94.80;;;51.30;;
43933;SDS011;59081;42.706;23.306;2022-12-24T11:27:49;86.63;;;49.28;;
43933;SDS011;59081;42.706;23.306;2022-12-24T11:32:47;86.22;;;52.03;;
43933;SDS011;59081;42.706;23.306;2022-12-24T11:35:21;90.95;;;50.13;;
43933;SDS011;59081;42.706;23.306;2022-12-24T11:37:48;83.63;;;48.38;;
43933;SDS011;59081;42.706;23.306;2022-12-24T11:43:20;80.07;;;42.78;;
43933;SDS011;59081;42.706;23.306;2022-12-24T11:45:50;74.90;;;34.42;;
43933;SDS011;59081;42.706;23.306;2022-12-24T11:48:27;58.97;;;34.75;;
43933;SDS011;59081;42.706;23.306;2022-12-24T11:50:57;65.00;;;38.17;;
43933;SDS011;59081;42.706;23.306;2022-12-24T11:56:00;72.15;;;40.30;;
43933;SDS011;59081;42.706;23.306;2022-12-24T11:58:36;68.10;;;38.03;;
43933;SDS011;59081;42.706;23.306;2022-12-24T12:01:11;68.82;;;41.40;;
43933;SDS011;59081;42.706;23.306;2022-12-24T12:09:38;78.32;;;38.50;;
43933;SDS011;59081;42.706;23.306;2022-12-24T12:12:33;60.03;;;33.25;;
43933;SDS011;59081;42.706;23.306;2022-12-24T12:15:09;59.97;;;35.05;;
43933;SDS011;59081;42.706;23.306;2022-12-24T12:17:40;58.30;;;34.90;;
43933;SDS011;59081;42.706;23.306;2022-12-24T12:23:37;60.53;;;33.13;;
43933;SDS011;59081;42.706;23.306;2022-12-24T12:26:14;69.75;;;37.35;;
43933;SDS011;59081;42.706;23.306;2022-12-24T12:28:46;65.75;;;34.88;;
43933;SDS011;59081;42.706;23.306;2022-12-24T12:33:56;57.85;;;35.25;;
43933;SDS011;59081;42.706;23.306;2022-12-24T12:36:33;63.53;;;37.72;;
43933;SDS011;59081;42.706;23.306;2022-12-24T12:39:09;64.10;;;38.78;;
43933;SDS011;59081;42.706;23.306;2022-12-24T12:55:32;77.20;;;42.08;;
43933;SDS011;59081;42.706;23.306;2022-12-24T13:00:56;71.47;;;40.67;;
43933;SDS011;59081;42.706;23.306;2022-12-24T13:14:21;84.25;;;43.85;;
43933;SDS011;59081;42.706;23.306;2022-12-24T13:17:21;84.47;;;43.90;;
43933;SDS011;59081;42.706;23.306;2022-12-24T13:20:23;74.85;;;41.25;;
43933;SDS011;59081;42.706;23.306;2022-12-24T13:22:59;82.03;;;42.50;;
43933;SDS011;59081;42.706;23.306;2022-12-24T13:25:47;81.03;;;43.13;;
43933;SDS011;59081;42.706;23.306;2022-12-24T13:30:42;77.28;;;43.88;;
43933;SDS011;59081;42.706;23.306;2022-12-24T13:33:12;85.72;;;46.55;;
43933;SDS011;59081;42.706;23.306;2022-12-24T13:35:59;97.57;;;52.88;;
43933;SDS011;59081;42.706;23.306;2022-12-24T13:40:52;108.60;;;59.45;;
43933;SDS011;59081;42.706;23.306;2022-12-24T13:43:18;103.75;;;56.92;;
43933;SDS011;59081;42.706;23.306;2022-12-24T13:45:45;111.28;;;58.50;;
43933;SDS011;59081;42.706;23.306;2022-12-24T13:50:52;104.00;;;55.33;;
43933;SDS011;59081;42.706;23.306;2022-12-24T13:53:33;94.60;;;52.58;;
43933;SDS011;59081;42.706;23.306;2022-12-24T13:58:48;105.65;;;54.78;;
43933;SDS011;59081;42.706;23.306;2022-12-24T14:01:39;114.10;;;59.75;;
43933;SDS011;59081;42.706;23.306;2022-12-24T14:04:08;96.78;;;54.88;;
43933;SDS011;59081;42.706;23.306;2022-12-24T14:09:25;100.22;;;54.42;;
43933;SDS011;59081;42.706;23.306;2022-12-24T14:20:43;100.60;;;58.45;;
43933;SDS011;59081;42.706;23.306;2022-12-24T14:29:05;102.72;;;58.92;;
43933;SDS011;59081;42.706;23.306;2022-12-24T14:31:52;114.68;;;61.85;;
43933;SDS011;59081;42.706;23.306;2022-12-24T14:37:32;116.28;;;66.15;;
43933;SDS011;59081;42.706;23.306;2022-12-24T14:40:12;120.55;;;66.93;;
43933;SDS011;59081;42.706;23.306;2022-12-24T14:48:40;126.97;;;68.38;;
43933;SDS011;59081;42.706;23.306;2022-12-24T14:57:24;114.78;;;58.42;;
43933;SDS011;59081;42.706;23.306;2022-12-24T14:59:58;96.40;;;51.47;;
43933;SDS011;59081;42.706;23.306;2022-12-24T15:05:17;56.67;;;33.83;;
43933;SDS011;59081;42.706;23.306;2022-12-24T15:07:54;53.35;;;30.73;;
43933;SDS011;59081;42.706;23.306;2022-12-24T15:10:27;50.13;;;28.17;;
43933;SDS011;59081;42.706;23.306;2022-12-24T15:13:00;37.97;;;21.08;;
43933;SDS011;59081;42.706;23.306;2022-12-24T15:15:31;35.10;;;21.80;;
43933;SDS011;59081;42.706;23.306;2022-12-24T15:17:58;26.10;;;15.05;;
43933;SDS011;59081;42.706;23.306;2022-12-24T15:20:28;25.65;;;14.25;;
43933;SDS011;59081;42.706;23.306;2022-12-24T15:22:56;17.38;;;9.07;;
43933;SDS011;59081;42.706;23.306;2022-12-24T15:25:27;21.45;;;12.15;;
43933;SDS011;59081;42.706;23.306;2022-12-24T15:27:55;18.20;;;11.23;;
43933;SDS011;59081;42.706;23.306;2022-12-24T15:30:25;14.80;;;9.18;;
43933;SDS011;59081;42.706;23.306;2022-12-24T15:32:58;14.25;;;8.88;;
43933;SDS011;59081;42.706;23.306;2022-12-24T15:35:28;14.77;;;8.38;;
43933;SDS011;59081;42.706;23.306;2022-12-24T15:37:56;14.50;;;9.77;;
43933;SDS011;59081;42.706;23.306;2022-12-24T15:40:23;20.38;;;9.90;;
43933;SDS011;59081;42.706;23.306;2022-12-24T15:42:50;20.92;;;10.55;;
43933;SDS011;59081;42.706;23.306;2022-12-24T15:48:00;18.38;;;8.70;;
43933;SDS011;59081;42.706;23.306;2022-12-24T15:50:37;15.98;;;9.40;;
43933;SDS011;59081;42.706;23.306;2022-12-24T15:53:12;16.65;;;10.45;;
43933;SDS011;59081;42.706;23.306;2022-12-24T15:55:58;15.50;;;9.52;;
43933;SDS011;59081;42.706;23.306;2022-12-24T15:58:25;15.82;;;9.38;;
43933;SDS011;59081;42.706;23.306;2022-12-24T16:01:37;17.42;;;10.50;;
43933;SDS011;59081;42.706;23.306;2022-12-24T16:06:20;27.65;;;15.60;;
43933;SDS011;59081;42.706;23.306;2022-12-24T16:08:52;24.52;;;14.88;;
43933;SDS011;59081;42.706;23.306;2022-12-24T16:16:36;23.40;;;16.50;;
43933;SDS011;59081;42.706;23.306;2022-12-24T16:19:06;23.20;;;12.52;;
43933;SDS011;59081;42.706;23.306;2022-12-24T16:21:42;21.38;;;13.70;;
43933;SDS011;59081;42.706;23.306;2022-12-24T16:24:16;20.15;;;11.70;;
43933;SDS011;59081;42.706;23.306;2022-12-24T16:26:45;17.80;;;11.02;;
43933;SDS011;59081;42.706;23.306;2022-12-24T16:29:12;25.58;;;15.00;;
43933;SDS011;59081;42.706;23.306;2022-12-24T16:34:25;22.50;;;12.27;;
43933;SDS011;59081;42.706;23.306;2022-12-24T16:36:55;19.95;;;12.40;;
43933;SDS011;59081;42.706;23.306;2022-12-24T16:39:23;19.25;;;11.60;;
43933;SDS011;59081;42.706;23.306;2022-12-24T16:41:54;19.40;;;11.30;;
43933;SDS011;59081;42.706;23.306;2022-12-24T16:44:40;20.65;;;11.75;;
43933;SDS011;59081;42.706;23.306;2022-12-24T16:47:08;20.95;;;12.45;;
43933;SDS011;59081;42.706;23.306;2022-12-24T16:49:37;22.40;;;11.70;;
43933;SDS011;59081;42.706;23.306;2022-12-24T16:52:04;23.50;;;13.60;;
43933;SDS011;59081;42.706;23.306;2022-12-24T16:54:30;29.58;;;16.98;;
43933;SDS011;59081;42.706;23.306;2022-12-24T16:56:56;27.63;;;15.77;;
43933;SDS011;59081;42.706;23.306;2022-12-24T16:59:27;31.13;;;19.27;;
43933;SDS011;59081;42.706;23.306;2022-12-24T17:01:53;28.95;;;18.05;;
43933;SDS011;59081;42.706;23.306;2022-12-24T17:04:18;28.02;;;16.55;;
43933;SDS011;59081;42.706;23.306;2022-12-24T17:06:44;23.80;;;14.00;;
43933;SDS011;59081;42.706;23.306;2022-12-24T17:09:12;27.27;;;15.30;;
43933;SDS011;59081;42.706;23.306;2022-12-24T17:11:40;24.50;;;15.43;;